Equality — ODTX — position and weather

sailwx.info

Track history (hours):
 
Tides and Currents Weather Stations Pressure Air Temp Water Temp Dewpoint Dewpoint Depression Visibility Wind Speed Wind Dir Waves Ship Positions

Equality

Last reported at 2017-Jan-10 03:32 UTC. Time now 2017-Jan-21 02:19 UTC.
Position N 37°29' W 000°12'.
Warning: this ship's position is 10 days out of date.

Length 124 m; draft 5.5 m.

Type: Cargo ship. MMSI: 450501000.

Date/timePositionNaut miles runAvg speedWind from/ knotsBaromVisibWave heightAir tempDewpointWater temp
2017-Jan-10 03:32N 37°29' W 000°12'1010.0
2017-Jan-10 02:33N 37°29' W 000°24'9 9.5
2017-Jan-10 01:33N 37°29' W 000°36'10 9.9
2017-Jan-10 00:33N 37°29' W 000°49'10 8.4
2017-Jan-09 23:20N 37°35' W 000°59'0 0.0
2017-Jan-08 12:14N 37°35' W 000°59'2 3.0
2017-Jan-08 11:33N 37°34' W 001°00'0 0.2
2017-Jan-08 10:22N 37°34' W 001°01'0 0.0
2017-Jan-08 09:29N 37°34' W 001°01'0 0.0
2017-Jan-08 06:08N 37°34' W 001°01'0 0.0
2017-Jan-08 05:32N 37°34' W 001°01'0 0.0
2017-Jan-08 04:27N 37°34' W 001°01'0 0.0
2017-Jan-08 03:22N 37°34' W 001°01'0 0.0
2017-Jan-08 02:22N 37°34' W 001°01'0 0.0
2017-Jan-08 01:11N 37°34' W 001°01'0 0.0
2017-Jan-08 00:30N 37°34' W 001°01'0 0.0
2017-Jan-07 23:31N 37°34' W 001°01'0 0.0
2017-Jan-07 22:31N 37°34' W 001°01'0 0.0
2017-Jan-07 20:33N 37°34' W 001°01'0 0.0
2017-Jan-07 19:32N 37°34' W 001°01'0 0.0
2017-Jan-07 18:21N 37°34' W 001°01'0 0.0
2017-Jan-07 17:22N 37°34' W 001°01'0 0.0
2017-Jan-07 16:29N 37°34' W 001°01'0 0.0
2017-Jan-07 15:29N 37°34' W 001°01'0 0.0
2017-Jan-07 13:31N 37°34' W 001°01'0 0.0
2017-Jan-07 12:26N 37°34' W 001°01'0 0.0
2017-Jan-07 10:33N 37°34' W 001°01'0 0.0
2017-Jan-07 09:22N 37°34' W 001°01'0 0.0
2017-Jan-07 08:17N 37°34' W 001°01'0 0.0
2017-Jan-07 07:29N 37°34' W 001°01'0 0.0
2017-Jan-07 06:18N 37°34' W 001°01'0 0.0
2017-Jan-07 05:30N 37°34' W 001°01'0 0.0
2017-Jan-07 04:25N 37°34' W 001°01'0 0.0
2017-Jan-07 03:31N 37°34' W 001°01'0 0.0
2017-Jan-07 02:26N 37°34' W 001°01'0 0.0
2017-Jan-07 01:33N 37°34' W 001°01'0 0.0
2017-Jan-07 00:27N 37°34' W 001°01'0 0.0
2017-Jan-06 23:22N 37°34' W 001°01'0 0.0
2017-Jan-06 22:23N 37°34' W 001°01'0 0.0
2017-Jan-06 20:30N 37°34' W 001°01'0 0.0
2017-Jan-06 19:31N 37°34' W 001°01'0 0.0
2017-Jan-06 18:32N 37°34' W 001°01'0 0.0
2017-Jan-06 17:32N 37°34' W 001°01'0 0.0
2017-Jan-06 16:33N 37°34' W 001°01'0 0.0
2017-Jan-06 15:34N 37°34' W 001°01'0 0.0
2017-Jan-06 14:23N 37°34' W 001°01'0 0.0
2017-Jan-06 13:23N 37°34' W 001°01'0 0.0
2017-Jan-06 12:29N 37°34' W 001°01'0 0.0
2017-Jan-06 11:30N 37°34' W 001°01'0 0.0
2017-Jan-06 10:31N 37°34' W 001°01'0 0.0
2017-Jan-06 09:31N 37°34' W 001°01'0 0.0
2017-Jan-06 08:32N 37°34' W 001°01'0 0.0
2017-Jan-06 07:27N 37°34' W 001°01'0 0.0
2017-Jan-06 06:28N 37°34' W 001°01'0 0.0
2017-Jan-06 03:30N 37°34' W 001°01'0 0.0
2017-Jan-06 02:25N 37°34' W 001°01'0 0.0
2017-Jan-05 23:20N 37°34' W 001°01'0 0.0
2017-Jan-05 22:33N 37°34' W 001°01'0 0.0
2017-Jan-05 20:10N 37°34' W 001°01'0 0.0
2017-Jan-05 18:24N 37°34' W 001°01'0 0.0
2017-Jan-05 17:30N 37°34' W 001°01'0 0.0
2017-Jan-05 16:31N 37°34' W 001°01'0 0.0
2017-Jan-05 15:32N 37°34' W 001°01'0 0.0
2017-Jan-05 14:32N 37°34' W 001°01'0 0.0
2017-Jan-05 13:27N 37°34' W 001°01'0 0.0
2017-Jan-05 11:28N 37°34' W 001°01'0 0.0
2017-Jan-05 10:28N 37°34' W 001°01'0 0.0
2017-Jan-05 09:23N 37°34' W 001°01'0 0.0
2017-Jan-05 07:19N 37°34' W 001°01'0 0.1
2017-Jan-05 06:20N 37°34' W 001°01'0 0.0
2017-Jan-05 05:32N 37°34' W 001°01'0 0.0
2017-Jan-05 04:33N 37°34' W 001°01'0 0.1
2017-Jan-05 03:28N 37°34' W 001°01'0 0.0
2017-Jan-05 02:28N 37°34' W 001°01'0 0.0
2017-Jan-05 01:29N 37°34' W 001°01'0 0.0
2017-Jan-05 00:24N 37°34' W 001°01'0 0.0
2017-Jan-04 23:31N 37°34' W 001°01'0 0.0
2017-Jan-04 22:31N 37°34' W 001°01'0 0.0
2017-Jan-04 20:21N 37°34' W 001°01'0 0.0
2017-Jan-04 19:33N 37°34' W 001°01'0 0.0
2017-Jan-04 18:33N 37°34' W 001°01'0 0.0
2017-Jan-04 17:28N 37°34' W 001°01'0 0.0
2017-Jan-04 16:29N 37°34' W 001°01'0 0.0
2017-Jan-04 15:23N 37°34' W 001°01'0 0.0
2017-Jan-04 14:30N 37°34' W 001°01'0 0.0
2017-Jan-04 13:25N 37°34' W 001°01'0 0.0
2017-Jan-04 11:26N 37°34' W 001°01'0 0.0
2017-Jan-04 10:33N 37°34' W 001°01'0 0.0
2017-Jan-04 09:28N 37°34' W 001°01'0 0.0
2017-Jan-04 08:29N 37°34' W 001°01'0 0.0
2017-Jan-04 07:12N 37°34' W 001°01'0 0.0
2017-Jan-04 06:24N 37°34' W 001°01'0 0.0
2017-Jan-04 05:25N 37°34' W 001°01'0 0.0
2017-Jan-04 03:25N 37°34' W 001°01'0 0.0
2017-Jan-04 02:32N 37°34' W 001°01'0 0.0
2017-Jan-04 01:21N 37°34' W 001°01'0 0.0
2017-Jan-04 00:33N 37°34' W 001°01'0 0.1
2017-Jan-03 23:22N 37°34' W 001°01'0 0.0
2017-Jan-03 22:29N 37°34' W 001°01'0 0.0
2017-Jan-03 20:25N 37°34' W 001°01'0 0.0
2017-Jan-03 19:31N 37°34' W 001°01'0 0.0
2017-Jan-03 18:32N 37°34' W 001°01'0 0.0
2017-Jan-03 17:33N 37°34' W 001°01'0 0.0
2017-Jan-03 16:33N 37°34' W 001°01'0 0.0
2017-Jan-03 15:15N 37°34' W 001°01'0 0.0
2017-Jan-03 14:28N 37°34' W 001°01'0 0.0
2017-Jan-03 13:29N 37°34' W 001°01'0 0.0
2017-Jan-03 12:29N 37°34' W 001°01'0 0.0
2017-Jan-03 10:13N 37°34' W 001°01'0 0.0
2017-Jan-03 09:32N 37°34' W 001°01'0 0.0
2017-Jan-03 08:32N 37°34' W 001°01'0 0.0
2017-Jan-03 07:33N 37°34' W 001°01'0 0.0
2017-Jan-03 06:28N 37°34' W 001°01'0 0.0
2017-Jan-03 05:29N 37°34' W 001°01'0 0.0
2017-Jan-03 04:12N 37°34' W 001°01'0 0.0
2017-Jan-03 03:30N 37°34' W 001°01'0 0.0
2017-Jan-03 02:19N 37°34' W 001°01'0 0.0
2017-Jan-03 01:31N 37°34' W 001°01'0 0.0
2017-Jan-03 00:31N 37°34' W 001°01'0 0.0
2017-Jan-02 22:33N 37°34' W 001°01'0 0.0
2017-Jan-02 20:29N 37°34' W 001°01'0 0.0
2017-Jan-02 19:29N 37°34' W 001°01'0 0.0
2017-Jan-02 17:19N 37°34' W 001°01'0 0.0
2017-Jan-02 15:20N 37°34' W 001°01'0 0.0
2017-Jan-02 13:33N 37°34' W 001°01'0 0.0
2017-Jan-02 12:33N 37°34' W 001°01'0 0.0
2017-Jan-02 11:28N 37°34' W 001°01'0 0.0
2017-Jan-02 07:16N 37°34' W 001°01'0 0.0
2017-Jan-02 06:23N 37°34' W 001°01'0 0.0
2017-Jan-02 05:12N 37°34' W 001°01'0 0.0
2017-Jan-02 04:30N 37°34' W 001°01'0 0.0
2017-Jan-02 03:25N 37°34' W 001°01'0 0.0
2017-Jan-02 02:08N 37°34' W 001°01'0 0.0
2017-Jan-02 01:33N 37°34' W 001°01'0 0.0
2017-Jan-01 07:29N 37°34' W 001°01'1 0.1
2016-Dec-31 14:07N 37°33' W 001°01'4 7.9
2016-Dec-31 13:33N 37°31' W 000°56'8 8.2
2016-Dec-31 12:33N 37°29' W 000°46'8 8.3
2016-Dec-31 11:33N 37°30' W 000°35'52 8.1
2016-Dec-31 05:09N 37°31' E 000°30'8 7.6
2016-Dec-31 04:07N 37°31' E 000°40'  
Track history (hours):
 
Tides and Currents Weather Stations Pressure Air Temp Water Temp Dewpoint Dewpoint Depression Visibility Wind Speed Wind Dir Waves Ship Positions

Equality

Last reported at 2017-Jan-10 03:32 UTC. Time now 2017-Jan-21 02:19 UTC.
Position N 37°29' W 000°12'.
Warning: this ship's position is 10 days out of date.

Length 124 m; draft 5.5 m.

Type: Cargo ship. MMSI: 450501000.

Date/timePositionNaut miles runAvg speedWind from/ knotsBaromVisibWave heightAir tempDewpointWater temp
2017-Jan-10 03:32N 37°29' W 000°12'1010.0
2017-Jan-10 02:33N 37°29' W 000°24'9 9.5
2017-Jan-10 01:33N 37°29' W 000°36'10 9.9
2017-Jan-10 00:33N 37°29' W 000°49'10 8.4
2017-Jan-09 23:20N 37°35' W 000°59'0 0.0
2017-Jan-08 12:14N 37°35' W 000°59'2 3.0
2017-Jan-08 11:33N 37°34' W 001°00'0 0.2
2017-Jan-08 10:22N 37°34' W 001°01'0 0.0
2017-Jan-08 09:29N 37°34' W 001°01'0 0.0
2017-Jan-08 06:08N 37°34' W 001°01'0 0.0
2017-Jan-08 05:32N 37°34' W 001°01'0 0.0
2017-Jan-08 04:27N 37°34' W 001°01'0 0.0
2017-Jan-08 03:22N 37°34' W 001°01'0 0.0
2017-Jan-08 02:22N 37°34' W 001°01'0 0.0
2017-Jan-08 01:11N 37°34' W 001°01'0 0.0
2017-Jan-08 00:30N 37°34' W 001°01'0 0.0
2017-Jan-07 23:31N 37°34' W 001°01'0 0.0
2017-Jan-07 22:31N 37°34' W 001°01'0 0.0
2017-Jan-07 20:33N 37°34' W 001°01'0 0.0
2017-Jan-07 19:32N 37°34' W 001°01'0 0.0
2017-Jan-07 18:21N 37°34' W 001°01'0 0.0
2017-Jan-07 17:22N 37°34' W 001°01'0 0.0
2017-Jan-07 16:29N 37°34' W 001°01'0 0.0
2017-Jan-07 15:29N 37°34' W 001°01'0 0.0
2017-Jan-07 13:31N 37°34' W 001°01'0 0.0
2017-Jan-07 12:26N 37°34' W 001°01'0 0.0
2017-Jan-07 10:33N 37°34' W 001°01'0 0.0
2017-Jan-07 09:22N 37°34' W 001°01'0 0.0
2017-Jan-07 08:17N 37°34' W 001°01'0 0.0
2017-Jan-07 07:29N 37°34' W 001°01'0 0.0
2017-Jan-07 06:18N 37°34' W 001°01'0 0.0
2017-Jan-07 05:30N 37°34' W 001°01'0 0.0
2017-Jan-07 04:25N 37°34' W 001°01'0 0.0
2017-Jan-07 03:31N 37°34' W 001°01'0 0.0
2017-Jan-07 02:26N 37°34' W 001°01'0 0.0
2017-Jan-07 01:33N 37°34' W 001°01'0 0.0
2017-Jan-07 00:27N 37°34' W 001°01'0 0.0
2017-Jan-06 23:22N 37°34' W 001°01'0 0.0
2017-Jan-06 22:23N 37°34' W 001°01'0 0.0
2017-Jan-06 20:30N 37°34' W 001°01'0 0.0
2017-Jan-06 19:31N 37°34' W 001°01'0 0.0
2017-Jan-06 18:32N 37°34' W 001°01'0 0.0
2017-Jan-06 17:32N 37°34' W 001°01'0 0.0
2017-Jan-06 16:33N 37°34' W 001°01'0 0.0
2017-Jan-06 15:34N 37°34' W 001°01'0 0.0
2017-Jan-06 14:23N 37°34' W 001°01'0 0.0
2017-Jan-06 13:23N 37°34' W 001°01'0 0.0
2017-Jan-06 12:29N 37°34' W 001°01'0 0.0
2017-Jan-06 11:30N 37°34' W 001°01'0 0.0
2017-Jan-06 10:31N 37°34' W 001°01'0 0.0
2017-Jan-06 09:31N 37°34' W 001°01'0 0.0
2017-Jan-06 08:32N 37°34' W 001°01'0 0.0
2017-Jan-06 07:27N 37°34' W 001°01'0 0.0
2017-Jan-06 06:28N 37°34' W 001°01'0 0.0
2017-Jan-06 03:30N 37°34' W 001°01'0 0.0
2017-Jan-06 02:25N 37°34' W 001°01'0 0.0
2017-Jan-05 23:20N 37°34' W 001°01'0 0.0
2017-Jan-05 22:33N 37°34' W 001°01'0 0.0
2017-Jan-05 20:10N 37°34' W 001°01'0 0.0
2017-Jan-05 18:24N 37°34' W 001°01'0 0.0
2017-Jan-05 17:30N 37°34' W 001°01'0 0.0
2017-Jan-05 16:31N 37°34' W 001°01'0 0.0
2017-Jan-05 15:32N 37°34' W 001°01'0 0.0
2017-Jan-05 14:32N 37°34' W 001°01'0 0.0
2017-Jan-05 13:27N 37°34' W 001°01'0 0.0
2017-Jan-05 11:28N 37°34' W 001°01'0 0.0
2017-Jan-05 10:28N 37°34' W 001°01'0 0.0
2017-Jan-05 09:23N 37°34' W 001°01'0 0.0
2017-Jan-05 07:19N 37°34' W 001°01'0 0.1
2017-Jan-05 06:20N 37°34' W 001°01'0 0.0
2017-Jan-05 05:32N 37°34' W 001°01'0 0.0
2017-Jan-05 04:33N 37°34' W 001°01'0 0.1
2017-Jan-05 03:28N 37°34' W 001°01'0 0.0
2017-Jan-05 02:28N 37°34' W 001°01'0 0.0
2017-Jan-05 01:29N 37°34' W 001°01'0 0.0
2017-Jan-05 00:24N 37°34' W 001°01'0 0.0
2017-Jan-04 23:31N 37°34' W 001°01'0 0.0
2017-Jan-04 22:31N 37°34' W 001°01'0 0.0
2017-Jan-04 20:21N 37°34' W 001°01'0 0.0
2017-Jan-04 19:33N 37°34' W 001°01'0 0.0
2017-Jan-04 18:33N 37°34' W 001°01'0 0.0
2017-Jan-04 17:28N 37°34' W 001°01'0 0.0
2017-Jan-04 16:29N 37°34' W 001°01'0 0.0
2017-Jan-04 15:23N 37°34' W 001°01'0 0.0
2017-Jan-04 14:30N 37°34' W 001°01'0 0.0
2017-Jan-04 13:25N 37°34' W 001°01'0 0.0
2017-Jan-04 11:26N 37°34' W 001°01'0 0.0
2017-Jan-04 10:33N 37°34' W 001°01'0 0.0
2017-Jan-04 09:28N 37°34' W 001°01'0 0.0
2017-Jan-04 08:29N 37°34' W 001°01'0 0.0
2017-Jan-04 07:12N 37°34' W 001°01'0 0.0
2017-Jan-04 06:24N 37°34' W 001°01'0 0.0
2017-Jan-04 05:25N 37°34' W 001°01'0 0.0
2017-Jan-04 03:25N 37°34' W 001°01'0 0.0
2017-Jan-04 02:32N 37°34' W 001°01'0 0.0
2017-Jan-04 01:21N 37°34' W 001°01'0 0.0
2017-Jan-04 00:33N 37°34' W 001°01'0 0.1
2017-Jan-03 23:22N 37°34' W 001°01'0 0.0
2017-Jan-03 22:29N 37°34' W 001°01'0 0.0
2017-Jan-03 20:25N 37°34' W 001°01'0 0.0
2017-Jan-03 19:31N 37°34' W 001°01'0 0.0
2017-Jan-03 18:32N 37°34' W 001°01'0 0.0
2017-Jan-03 17:33N 37°34' W 001°01'0 0.0
2017-Jan-03 16:33N 37°34' W 001°01'0 0.0
2017-Jan-03 15:15N 37°34' W 001°01'0 0.0
2017-Jan-03 14:28N 37°34' W 001°01'0 0.0
2017-Jan-03 13:29N 37°34' W 001°01'0 0.0
2017-Jan-03 12:29N 37°34' W 001°01'0 0.0
2017-Jan-03 10:13N 37°34' W 001°01'0 0.0
2017-Jan-03 09:32N 37°34' W 001°01'0 0.0
2017-Jan-03 08:32N 37°34' W 001°01'0 0.0
2017-Jan-03 07:33N 37°34' W 001°01'0 0.0
2017-Jan-03 06:28N 37°34' W 001°01'0 0.0
2017-Jan-03 05:29N 37°34' W 001°01'0 0.0
2017-Jan-03 04:12N 37°34' W 001°01'0 0.0
2017-Jan-03 03:30N 37°34' W 001°01'0 0.0
2017-Jan-03 02:19N 37°34' W 001°01'0 0.0
2017-Jan-03 01:31N 37°34' W 001°01'0 0.0
2017-Jan-03 00:31N 37°34' W 001°01'0 0.0
2017-Jan-02 22:33N 37°34' W 001°01'0 0.0
2017-Jan-02 20:29N 37°34' W 001°01'0 0.0
2017-Jan-02 19:29N 37°34' W 001°01'0 0.0
2017-Jan-02 17:19N 37°34' W 001°01'0 0.0
2017-Jan-02 15:20N 37°34' W 001°01'0 0.0
2017-Jan-02 13:33N 37°34' W 001°01'0 0.0
2017-Jan-02 12:33N 37°34' W 001°01'0 0.0
2017-Jan-02 11:28N 37°34' W 001°01'0 0.0
2017-Jan-02 07:16N 37°34' W 001°01'0 0.0
2017-Jan-02 06:23N 37°34' W 001°01'0 0.0
2017-Jan-02 05:12N 37°34' W 001°01'0 0.0
2017-Jan-02 04:30N 37°34' W 001°01'0 0.0
2017-Jan-02 03:25N 37°34' W 001°01'0 0.0
2017-Jan-02 02:08N 37°34' W 001°01'0 0.0
2017-Jan-02 01:33N 37°34' W 001°01'0 0.0
2017-Jan-01 07:29N 37°34' W 001°01'1 0.1
2016-Dec-31 14:07N 37°33' W 001°01'4 7.9
2016-Dec-31 13:33N 37°31' W 000°56'8 8.2
2016-Dec-31 12:33N 37°29' W 000°46'8 8.3
2016-Dec-31 11:33N 37°30' W 000°35'52 8.1
2016-Dec-31 05:09N 37°31' E 000°30'8 7.6
2016-Dec-31 04:07N 37°31' E 000°40'  

Dump ship's entire track history